createdAt,value
2019-02-27T00:01:07.202Z,7.75
2019-02-27T00:02:22.709Z,10.78
2019-02-27T00:03:35.450Z,12.00
2019-02-27T00:04:48.666Z,9.50
2019-02-27T00:06:01.946Z,12.68
2019-02-27T00:07:15.188Z,7.50
2019-02-27T00:08:28.428Z,6.55
2019-02-27T00:09:41.654Z,9.10
2019-02-27T00:10:54.873Z,9.90
2019-02-27T00:12:08.082Z,8.25
2019-02-27T00:13:24.724Z,8.73
2019-02-27T00:14:36.249Z,8.43
2019-02-27T00:15:50.874Z,8.35
2019-02-27T00:17:05.309Z,7.10
2019-02-27T00:18:18.493Z,7.78
2019-02-27T00:19:31.986Z,10.70
2019-02-27T00:20:45.209Z,7.08
2019-02-27T00:21:58.425Z,6.67
2019-02-27T00:23:11.659Z,6.90
2019-02-27T00:24:29.622Z,6.00
2019-02-27T00:25:39.817Z,11.30
2019-02-27T00:26:53.501Z,8.65
2019-02-27T00:28:06.722Z,7.45
2019-02-27T00:29:19.949Z,5.62
2019-02-27T00:30:33.165Z,7.75
2019-02-27T00:31:46.380Z,7.50
2019-02-27T00:32:59.601Z,6.72
2019-02-27T00:34:12.834Z,6.42
2019-02-27T00:35:26.054Z,7.62
2019-02-27T00:36:44.894Z,7.70
2019-02-27T00:37:55.837Z,7.00
2019-02-27T00:39:09.305Z,7.92
2019-02-27T00:40:22.553Z,5.97
2019-02-27T00:41:35.782Z,5.83
2019-02-27T00:42:48.997Z,8.23
2019-02-27T00:44:02.262Z,6.53
2019-02-27T00:45:15.477Z,7.15
2019-02-27T00:46:28.701Z,6.67
2019-02-27T00:47:41.921Z,5.90
2019-02-27T00:48:59.059Z,6.87
2019-02-27T00:50:10.271Z,6.80
2019-02-27T00:51:23.486Z,6.92
2019-02-27T00:52:36.712Z,8.83
2019-02-27T00:53:49.929Z,6.85
2019-02-27T00:55:05.203Z,7.42
2019-02-27T00:56:18.584Z,6.17
2019-02-27T00:57:31.812Z,10.03
2019-02-27T00:58:45.025Z,8.93
2019-02-27T00:59:58.261Z,7.25
2019-02-27T01:01:12.588Z,7.03
2019-02-27T01:02:26.579Z,6.25
2019-02-27T01:03:39.803Z,7.70
2019-02-27T01:04:53.029Z,7.97
2019-02-27T01:06:06.255Z,6.22
2019-02-27T01:07:20.703Z,8.78
2019-02-27T01:08:34.644Z,10.28
2019-02-27T01:09:47.853Z,7.67
2019-02-27T01:11:01.322Z,6.45
2019-02-27T01:12:14.542Z,5.97
2019-02-27T01:13:28.930Z,8.10
2019-02-27T01:14:42.754Z,6.22
2019-02-27T01:15:55.981Z,9.73
2019-02-27T01:17:09.193Z,5.80
2019-02-27T01:18:22.465Z,9.45
2019-02-27T01:19:39.258Z,8.33
2019-02-27T01:20:52.261Z,7.17
2019-02-27T01:22:05.494Z,5.37
2019-02-27T01:23:18.716Z,9.98
2019-02-27T01:24:31.936Z,6.47
2019-02-27T01:25:45.152Z,6.10
2019-02-27T01:26:58.379Z,6.65
2019-02-27T01:28:11.672Z,6.85
2019-02-27T01:29:24.891Z,8.65
2019-02-27T01:30:38.106Z,6.90
2019-02-27T01:31:51.354Z,7.12
2019-02-27T01:33:04.867Z,8.88
2019-02-27T01:34:18.190Z,7.92
2019-02-27T01:35:31.421Z,7.70
2019-02-27T01:36:44.635Z,7.90
2019-02-27T01:37:57.858Z,5.92
2019-02-27T01:39:11.344Z,6.72
2019-02-27T01:40:25.269Z,5.50
2019-02-27T01:41:38.487Z,8.13
2019-02-27T01:42:51.713Z,5.95
2019-02-27T01:44:04.937Z,5.95
2019-02-27T01:45:20.613Z,5.67
2019-02-27T01:46:33.098Z,8.48
2019-02-27T01:47:46.309Z,9.48
2019-02-27T01:48:59.545Z,5.78
2019-02-27T01:50:24.870Z,5.97
2019-02-27T01:51:38.093Z,5.78
2019-02-27T01:52:51.313Z,9.25
2019-02-27T01:54:04.541Z,5.58
2019-02-27T01:55:21.812Z,10.48
2019-02-27T01:56:32.717Z,10.58
2019-02-27T01:57:45.931Z,8.20
2019-02-27T01:58:59.166Z,8.68
2019-02-27T02:00:12.384Z,5.62
2019-02-27T02:01:29.957Z,7.42
2019-02-27T02:02:40.612Z,5.62
2019-02-27T02:03:53.866Z,4.80
2019-02-27T02:05:07.077Z,6.05
2019-02-27T02:06:20.307Z,6.00
2019-02-27T02:07:33.525Z,5.33
2019-02-27T02:08:48.204Z,6.62
2019-02-27T02:10:01.697Z,6.10
2019-02-27T02:11:14.912Z,5.50
2019-02-27T02:12:28.174Z,6.65
2019-02-27T02:13:59.517Z,5.33
2019-02-27T02:15:21.581Z,8.05
2019-02-27T02:16:40.606Z,10.30
2019-02-27T02:18:16.228Z,9.85
2019-02-27T02:19:54.184Z,5.65
2019-02-27T02:21:19.853Z,5.85
2019-02-27T02:22:36.337Z,6.95
2019-02-27T02:24:14.911Z,8.20
2019-02-27T02:25:34.044Z,3.90
2019-02-27T02:27:01.681Z,5.20
2019-02-27T02:28:32.842Z,4.92
2019-02-27T02:29:52.983Z,6.08
2019-02-27T02:31:10.255Z,6.12
2019-02-27T02:32:32.315Z,6.28
2019-02-27T02:34:09.466Z,4.30
2019-02-27T02:35:49.614Z,4.37
2019-02-27T02:37:16.302Z,8.20
2019-02-27T02:38:55.346Z,5.28
2019-02-27T02:40:20.910Z,4.30
2019-02-27T02:41:47.939Z,5.53
2019-02-27T02:43:41.521Z,5.97
2019-02-27T02:45:13.713Z,4.45
2019-02-27T02:46:49.453Z,5.75
2019-02-27T02:48:14.390Z,4.55
2019-02-27T02:49:51.637Z,4.72
2019-02-27T02:51:29.081Z,6.97
2019-02-27T02:52:53.295Z,3.52
2019-02-27T02:54:38.185Z,10.23
2019-02-27T02:56:09.531Z,4.85
2019-02-27T02:57:36.267Z,6.87
2019-02-27T02:59:26.024Z,3.17
2019-02-27T03:00:51.478Z,7.58
2019-02-27T03:02:16.516Z,5.78
2019-02-27T03:03:37.004Z,3.65
2019-02-27T03:05:13.109Z,6.22
2019-02-27T03:06:35.099Z,3.25
2019-02-27T03:08:06.895Z,4.50
2019-02-27T03:09:23.375Z,4.45
2019-02-27T03:10:50.503Z,4.17
2019-02-27T03:12:12.833Z,4.70
2019-02-27T03:13:31.887Z,4.70
2019-02-27T03:15:03.009Z,5.92
2019-02-27T03:16:31.354Z,5.83
2019-02-27T03:17:53.763Z,5.28
2019-02-27T03:19:33.878Z,6.37
2019-02-27T03:21:13.723Z,5.00
2019-02-27T03:22:49.956Z,4.53
2019-02-27T03:24:06.432Z,4.17
2019-02-27T03:25:40.729Z,5.83
2019-02-27T03:27:10.934Z,7.45
2019-02-27T03:28:33.001Z,6.03
2019-02-27T03:30:15.095Z,3.98
2019-02-27T03:33:23.200Z,4.42
2019-02-27T03:34:50.432Z,9.70
2019-02-27T03:36:15.888Z,5.55
2019-02-27T03:37:38.133Z,8.48
2019-02-27T03:39:03.266Z,5.83
2019-02-27T03:40:22.312Z,8.05
2019-02-27T03:41:41.597Z,5.40
2019-02-27T03:43:13.045Z,5.78
2019-02-27T03:44:34.826Z,3.90
2019-02-27T03:46:09.274Z,6.67
2019-02-27T03:47:52.176Z,4.50
2019-02-27T03:49:23.777Z,6.17
2019-02-27T03:50:52.016Z,6.45
2019-02-27T03:52:36.319Z,8.80
2019-02-27T03:53:57.194Z,5.72
2019-02-27T03:55:22.106Z,5.53
2019-02-27T03:56:43.880Z,8.98
2019-02-27T03:58:11.550Z,5.67
2019-02-27T03:59:42.076Z,4.37
2019-02-27T04:01:14.413Z,7.22
2019-02-27T04:02:42.848Z,4.42
2019-02-27T04:04:14.267Z,4.67
2019-02-27T04:05:30.813Z,4.70
2019-02-27T04:07:07.990Z,7.35
2019-02-27T04:08:43.585Z,6.80
2019-02-27T04:09:54.882Z,6.22
2019-02-27T04:11:06.802Z,3.75
2019-02-27T04:12:20.137Z,4.62
2019-02-27T04:13:33.610Z,10.00
2019-02-27T04:14:47.062Z,6.60
2019-02-27T04:16:00.285Z,4.72
2019-02-27T04:17:14.244Z,7.55
2019-02-27T04:18:28.364Z,5.17
2019-02-27T04:19:41.539Z,5.58
2019-02-27T04:20:54.755Z,5.67
2019-02-27T04:22:07.974Z,7.12
2019-02-27T04:23:21.438Z,5.53
2019-02-27T04:24:34.664Z,5.22
2019-02-27T04:25:47.889Z,7.30
2019-02-27T04:27:01.109Z,5.42
2019-02-27T04:28:14.388Z,5.72
2019-02-27T04:29:28.361Z,5.65
2019-02-27T04:30:41.577Z,6.10
2019-02-27T04:31:54.806Z,4.92
2019-02-27T04:33:08.809Z,5.22
2019-02-27T04:34:22.033Z,6.05
2019-02-27T04:35:39.259Z,5.67
2019-02-27T04:36:50.189Z,5.22
2019-02-27T04:38:04.135Z,3.62
2019-02-27T04:39:17.353Z,7.28
2019-02-27T04:40:30.578Z,3.67
2019-02-27T04:41:44.490Z,5.33
2019-02-27T04:42:59.265Z,4.67
2019-02-27T04:44:12.649Z,5.17
2019-02-27T04:45:25.875Z,5.58
2019-02-27T04:46:39.080Z,4.67
2019-02-27T04:47:52.301Z,4.97
2019-02-27T04:49:05.528Z,7.37
2019-02-27T04:50:20.621Z,4.95
2019-02-27T04:51:33.847Z,6.92
2019-02-27T04:52:47.063Z,4.15
2019-02-27T04:54:00.297Z,6.92
2019-02-27T04:55:15.624Z,5.72
2019-02-27T04:56:28.485Z,8.33
2019-02-27T04:57:45.223Z,4.97
2019-02-27T04:58:58.440Z,4.60
2019-02-27T05:00:11.672Z,8.28
2019-02-27T05:01:24.906Z,5.85
2019-02-27T05:02:38.116Z,4.45
2019-02-27T05:03:51.344Z,8.53
2019-02-27T05:05:08.570Z,6.37
2019-02-27T05:06:21.378Z,4.62
2019-02-27T05:07:34.604Z,7.78
2019-02-27T05:08:47.859Z,4.83
2019-02-27T05:10:01.140Z,5.10
2019-02-27T05:11:14.866Z,4.08
2019-02-27T05:12:28.191Z,6.97
2019-02-27T05:13:41.410Z,9.65
2019-02-27T05:14:54.705Z,6.97
2019-02-27T05:16:07.946Z,6.58
2019-02-27T05:17:21.946Z,7.60
2019-02-27T05:18:35.272Z,4.70
2019-02-27T05:19:48.490Z,6.40
2019-02-27T05:21:01.717Z,9.00
2019-02-27T05:22:14.945Z,4.97
2019-02-27T05:23:28.175Z,7.60
2019-02-27T05:24:41.574Z,4.47
2019-02-27T05:25:54.787Z,5.35
2019-02-27T05:27:15.312Z,5.37
2019-02-27T05:30:14.608Z,5.25
2019-02-27T05:31:27.851Z,10.05
2019-02-27T05:32:41.063Z,8.23
2019-02-27T05:33:58.771Z,5.15
2019-02-27T05:35:13.593Z,10.50
2019-02-27T05:36:29.010Z,7.47
2019-02-27T05:37:41.758Z,7.92
2019-02-27T05:38:55.001Z,5.50
2019-02-27T05:40:09.759Z,5.80
2019-02-27T05:41:22.993Z,9.18
2019-02-27T05:42:38.809Z,7.92
2019-02-27T05:43:51.159Z,7.37
2019-02-27T05:45:06.305Z,7.65
2019-02-27T05:46:19.531Z,6.90
2019-02-27T05:47:32.755Z,4.55
2019-02-27T05:48:45.974Z,5.28
2019-02-27T05:50:00.566Z,11.57
2019-02-27T05:51:14.125Z,6.58
2019-02-27T05:52:27.352Z,6.65
2019-02-27T05:53:40.578Z,8.00
2019-02-27T05:54:53.801Z,4.67
2019-02-27T05:56:07.210Z,7.83
2019-02-27T05:57:21.108Z,6.62
2019-02-27T05:58:35.669Z,10.32
2019-02-27T05:59:48.881Z,6.42
2019-02-27T06:01:04.888Z,10.50
2019-02-27T06:02:17.049Z,6.20
2019-02-27T06:03:31.398Z,4.05
2019-02-27T06:04:44.613Z,6.92
2019-02-27T06:05:59.181Z,6.17
2019-02-27T06:07:12.409Z,10.10
2019-02-27T06:08:25.628Z,6.37
2019-02-27T06:09:38.847Z,7.65
2019-02-27T06:10:55.161Z,13.08
2019-02-27T06:12:07.623Z,9.53
2019-02-27T06:13:21.947Z,7.90
2019-02-27T06:14:35.178Z,11.78
2019-02-27T06:15:49.198Z,5.72
2019-02-27T06:17:02.734Z,7.62
2019-02-27T06:18:15.953Z,7.33
2019-02-27T06:19:30.612Z,7.15
2019-02-27T06:20:44.127Z,6.55
2019-02-27T06:21:57.346Z,9.38
2019-02-27T06:23:10.570Z,10.20
2019-02-27T06:24:23.809Z,10.98
2019-02-27T06:25:37.044Z,6.40
2019-02-27T06:26:50.486Z,7.90
2019-02-27T06:28:03.788Z,8.98
2019-02-27T06:29:17.016Z,15.85
2019-02-27T06:30:31.376Z,17.55
2019-02-27T06:31:44.752Z,21.30
2019-02-27T06:32:57.983Z,16.45
2019-02-27T06:34:11.442Z,9.40
2019-02-27T06:35:24.676Z,6.50
2019-02-27T06:36:41.955Z,9.88
2019-02-27T06:37:52.832Z,8.73
2019-02-27T06:39:06.455Z,13.70
2019-02-27T06:40:22.118Z,8.35
2019-02-27T06:41:35.341Z,13.78
2019-02-27T06:42:51.326Z,9.55
2019-02-27T06:44:04.250Z,14.58
2019-02-27T06:45:18.011Z,7.90
2019-02-27T06:46:31.296Z,15.83
2019-02-27T06:47:44.512Z,14.68
2019-02-27T06:48:57.732Z,8.58
2019-02-27T06:50:12.893Z,11.10
2019-02-27T06:51:26.130Z,13.98
2019-02-27T06:52:42.067Z,11.83
2019-02-27T06:53:54.288Z,10.50
2019-02-27T06:55:09.466Z,11.40
2019-02-27T06:56:22.941Z,5.08
2019-02-27T06:57:36.172Z,4.90
2019-02-27T06:58:50.077Z,9.33
2019-02-27T07:00:07.101Z,10.32
2019-02-27T07:01:22.190Z,9.45
2019-02-27T07:02:35.422Z,10.82
2019-02-27T07:03:49.631Z,11.55
2019-02-27T07:05:02.877Z,12.85
2019-02-27T07:06:16.092Z,12.80
2019-02-27T07:07:31.309Z,12.80
2019-02-27T07:08:44.272Z,10.53
2019-02-27T07:09:57.487Z,11.38
2019-02-27T07:11:11.268Z,7.12
2019-02-27T07:12:24.613Z,8.45
2019-02-27T07:13:37.829Z,8.48
2019-02-27T07:14:51.045Z,9.38
2019-02-27T07:16:04.546Z,8.65
2019-02-27T07:17:40.565Z,7.35
2019-02-27T07:18:53.781Z,10.90
2019-02-27T07:20:09.445Z,21.70
2019-02-27T07:21:22.660Z,31.75
2019-02-27T07:22:36.143Z,16.62
2019-02-27T07:23:49.362Z,31.02
2019-02-27T07:25:06.377Z,20.70
2019-02-27T07:26:17.761Z,16.87
2019-02-27T07:27:31.277Z,16.90
2019-02-27T07:28:45.193Z,13.58
2019-02-27T07:29:58.419Z,19.55
2019-02-27T07:31:12.474Z,9.40
2019-02-27T07:32:26.545Z,8.03
2019-02-27T07:33:40.667Z,15.30
2019-02-27T07:34:55.112Z,10.13
2019-02-27T07:36:08.339Z,9.65
2019-02-27T07:37:21.558Z,6.75
2019-02-27T07:38:34.796Z,10.63
2019-02-27T07:39:48.062Z,10.75
2019-02-27T07:41:01.278Z,6.95
2019-02-27T07:42:16.777Z,9.03
2019-02-27T07:43:30.009Z,11.15
2019-02-27T07:44:43.246Z,5.72
2019-02-27T07:45:56.465Z,6.47
2019-02-27T07:47:09.684Z,15.48
2019-02-27T07:48:22.909Z,6.22
2019-02-27T07:49:36.133Z,6.58
2019-02-27T07:50:49.388Z,9.50
2019-02-27T07:52:02.648Z,15.20
2019-02-27T07:53:17.653Z,12.58
2019-02-27T07:54:31.066Z,17.65
2019-02-27T07:55:44.280Z,13.05
2019-02-27T07:56:57.497Z,11.05
2019-02-27T07:58:10.728Z,12.82
2019-02-27T07:59:23.969Z,12.43
2019-02-27T08:00:37.202Z,10.90
2019-02-27T08:01:50.430Z,8.08
2019-02-27T08:03:03.645Z,5.47
2019-02-27T08:04:19.187Z,11.03
2019-02-27T08:05:31.882Z,6.45
2019-02-27T08:06:45.107Z,11.38
2019-02-27T08:07:58.320Z,6.37
2019-02-27T08:09:11.543Z,10.10
2019-02-27T08:10:25.811Z,7.50
2019-02-27T08:11:40.540Z,5.78
2019-02-27T08:12:56.485Z,9.08
2019-02-27T08:14:08.692Z,9.25
2019-02-27T08:15:21.918Z,10.20
2019-02-27T08:16:36.938Z,8.93
2019-02-27T08:17:57.483Z,7.47
2019-02-27T08:19:08.914Z,7.15
2019-02-27T08:20:22.899Z,16.70
2019-02-27T08:21:36.129Z,9.68
2019-02-27T08:22:49.766Z,21.10
2019-02-27T08:24:07.454Z,11.40
2019-02-27T08:25:20.084Z,9.28
2019-02-27T08:26:33.293Z,12.45
2019-02-27T08:27:46.539Z,11.90
2019-02-27T08:28:59.761Z,8.83
2019-02-27T08:30:27.910Z,16.87
2019-02-27T08:31:41.137Z,15.70
2019-02-27T08:32:54.375Z,12.65
2019-02-27T08:34:07.580Z,10.10
2019-02-27T08:35:21.052Z,9.23
2019-02-27T08:36:34.265Z,13.15
2019-02-27T08:37:47.722Z,15.43
2019-02-27T08:39:00.946Z,19.35
2019-02-27T08:40:14.714Z,20.10
2019-02-27T08:41:29.207Z,14.60
2019-02-27T08:42:43.595Z,8.95
2019-02-27T08:43:56.848Z,12.43
2019-02-27T08:45:19.988Z,14.73
2019-02-27T08:46:34.039Z,10.82
2019-02-27T08:47:49.235Z,11.83
2019-02-27T08:49:02.453Z,8.45
2019-02-27T08:50:24.018Z,11.95
2019-02-27T08:52:51.444Z,20.12
2019-02-27T08:54:04.730Z,11.08
2019-02-27T08:55:22.047Z,11.45
2019-02-27T08:56:33.668Z,10.05
2019-02-27T08:57:46.900Z,14.20
2019-02-27T08:59:00.132Z,11.65
2019-02-27T09:00:24.620Z,13.93
2019-02-27T09:01:37.956Z,10.18
2019-02-27T09:02:51.170Z,10.45
2019-02-27T09:04:06.112Z,14.90
2019-02-27T09:05:20.787Z,11.83
2019-02-27T09:06:34.203Z,11.20
2019-02-27T09:07:47.429Z,11.03
2019-02-27T09:09:00.652Z,11.60
2019-02-27T09:10:16.573Z,15.00
2019-02-27T09:11:29.818Z,10.38
2019-02-27T09:12:45.358Z,23.02
2019-02-27T09:13:58.718Z,22.05
2019-02-27T09:15:12.487Z,13.80
2019-02-27T09:16:26.123Z,19.57
2019-02-27T09:17:40.155Z,13.65
2019-02-27T09:18:53.385Z,13.60
2019-02-27T09:20:19.673Z,15.83
2019-02-27T09:21:32.462Z,11.03
2019-02-27T09:22:45.692Z,16.10
2019-02-27T09:23:58.926Z,13.28
2019-02-27T09:25:13.199Z,19.35
2019-02-27T09:26:26.430Z,12.50
2019-02-27T09:27:40.790Z,12.07
2019-02-27T09:28:54.102Z,14.43
2019-02-27T09:30:17.462Z,14.47
2019-02-27T09:31:30.697Z,15.18
2019-02-27T09:32:46.021Z,18.35
2019-02-27T09:33:59.333Z,13.53
2019-02-27T09:35:13.089Z,12.70
2019-02-27T09:36:26.333Z,15.10
2019-02-27T09:37:39.566Z,13.98
2019-02-27T09:38:57.274Z,14.23
2019-02-27T09:40:11.047Z,14.33
2019-02-27T09:41:24.285Z,15.50
2019-02-27T09:42:37.516Z,16.95
2019-02-27T09:43:50.749Z,22.85
2019-02-27T09:45:04.525Z,13.93
2019-02-27T09:46:19.604Z,18.98
2019-02-27T09:47:32.727Z,11.78
2019-02-27T09:48:45.945Z,16.48
2019-02-27T09:49:59.188Z,18.27
2019-02-27T09:51:12.419Z,28.42
2019-02-27T09:52:27.814Z,28.12
2019-02-27T09:53:40.590Z,35.65
2019-02-27T09:54:54.847Z,30.35
2019-02-27T09:56:08.649Z,22.32
2019-02-27T09:57:21.869Z,15.78
2019-02-27T09:58:35.101Z,15.90
2019-02-27T09:59:48.349Z,13.60
2019-02-27T10:01:07.427Z,15.68
2019-02-27T10:02:20.658Z,17.17
2019-02-27T10:03:33.881Z,14.93
2019-02-27T10:04:47.114Z,16.97
2019-02-27T10:06:01.541Z,17.75
2019-02-27T10:07:17.102Z,13.55
2019-02-27T10:08:29.722Z,14.35
2019-02-27T10:09:42.941Z,17.25
2019-02-27T10:10:56.184Z,15.53
2019-02-27T10:12:09.476Z,13.00
2019-02-27T10:13:23.942Z,17.25
2019-02-27T10:14:37.168Z,13.60
2019-02-27T10:15:50.401Z,15.35
2019-02-27T10:17:03.637Z,12.37
2019-02-27T10:18:18.959Z,15.95
2019-02-27T10:19:31.804Z,15.63
2019-02-27T10:20:45.046Z,18.05
2019-02-27T10:21:58.274Z,13.60
2019-02-27T10:23:11.496Z,10.63
2019-02-27T10:24:24.733Z,12.47
2019-02-27T10:25:37.964Z,11.00
2019-02-27T10:26:53.585Z,16.27
2019-02-27T10:28:06.154Z,16.00
2019-02-27T10:29:19.391Z,12.60
2019-02-27T10:30:32.633Z,12.00
2019-02-27T10:31:45.857Z,19.75
2019-02-27T10:32:59.094Z,12.80
2019-02-27T10:34:14.556Z,18.42
2019-02-27T10:35:29.392Z,13.20
2019-02-27T10:36:43.414Z,12.20
2019-02-27T10:37:56.798Z,13.32
2019-02-27T10:39:10.091Z,12.07
2019-02-27T10:40:24.649Z,12.85
2019-02-27T10:41:39.736Z,13.98
2019-02-27T10:42:52.965Z,12.03
2019-02-27T10:44:06.194Z,11.18
2019-02-27T10:45:19.410Z,12.75
2019-02-27T10:46:32.655Z,10.68
2019-02-27T10:47:46.861Z,13.80
2019-02-27T10:49:00.088Z,11.85
2019-02-27T10:50:13.855Z,13.85
2019-02-27T10:51:27.104Z,15.25
2019-02-27T10:52:40.343Z,17.02
2019-02-27T10:53:53.562Z,16.95
2019-02-27T10:55:11.335Z,19.98
2019-02-27T10:56:24.884Z,14.07
2019-02-27T10:57:38.576Z,20.30
2019-02-27T10:58:51.924Z,18.65
2019-02-27T11:00:08.413Z,25.50
2019-02-27T11:01:21.657Z,19.30
2019-02-27T11:02:34.892Z,18.98
2019-02-27T11:03:48.133Z,13.35
2019-02-27T11:05:01.361Z,16.48
2019-02-27T11:06:14.598Z,13.43
2019-02-27T11:07:27.849Z,11.38
2019-02-27T11:08:41.073Z,14.60
2019-02-27T11:09:54.312Z,14.95
2019-02-27T11:11:08.741Z,12.33
2019-02-27T11:12:22.050Z,17.85
2019-02-27T11:13:35.269Z,16.32
2019-02-27T11:14:48.498Z,8.83
2019-02-27T11:16:03.366Z,9.53
2019-02-27T11:17:16.629Z,10.45
2019-02-27T11:18:29.857Z,11.12
2019-02-27T11:19:46.272Z,9.33
2019-02-27T11:20:59.537Z,13.10
2019-02-27T11:22:12.835Z,13.80
2019-02-27T11:23:26.061Z,14.28
2019-02-27T11:24:39.284Z,11.12
2019-02-27T11:25:56.652Z,11.10
2019-02-27T11:27:07.470Z,10.75
2019-02-27T11:28:21.006Z,14.00
2019-02-27T11:29:42.473Z,13.58
2019-02-27T11:31:01.685Z,14.83
2019-02-27T11:32:14.929Z,17.57
2019-02-27T11:33:32.533Z,13.78
2019-02-27T11:34:45.551Z,19.92
2019-02-27T11:35:59.684Z,14.07
2019-02-27T11:37:13.938Z,13.38
2019-02-27T11:38:27.534Z,15.03
2019-02-27T11:39:40.764Z,16.48
2019-02-27T11:40:53.984Z,13.22
2019-02-27T11:42:07.213Z,13.38
2019-02-27T11:43:20.447Z,16.97
2019-02-27T11:44:33.756Z,12.90
2019-02-27T11:45:46.992Z,14.63
2019-02-27T11:47:00.217Z,14.25
2019-02-27T11:48:13.449Z,15.30
2019-02-27T11:49:26.692Z,21.17
2019-02-27T11:50:39.936Z,17.00
2019-02-27T11:51:53.930Z,11.57
2019-02-27T11:53:07.156Z,13.78
2019-02-27T11:54:20.385Z,12.07
2019-02-27T11:55:33.625Z,11.90
2019-02-27T11:56:46.861Z,12.85
2019-02-27T11:58:04.410Z,13.88
2019-02-27T11:59:15.041Z,12.73
2019-02-27T12:00:32.957Z,15.43
2019-02-27T12:01:47.812Z,13.83
2019-02-27T12:03:01.041Z,14.13
2019-02-27T12:04:14.274Z,10.82
2019-02-27T12:05:33.748Z,13.35
2019-02-27T12:06:43.078Z,11.53
2019-02-27T12:07:56.309Z,14.70
2019-02-27T12:09:09.536Z,14.13
2019-02-27T12:10:30.961Z,22.65
2019-02-27T12:13:01.362Z,23.00
2019-02-27T12:14:14.977Z,17.73
2019-02-27T12:15:28.257Z,13.03
2019-02-27T12:16:41.491Z,11.97
2019-02-27T12:17:59.733Z,12.95
2019-02-27T12:19:09.666Z,18.23
2019-02-27T12:20:23.468Z,10.88
2019-02-27T12:21:36.709Z,22.13
2019-02-27T12:22:51.370Z,27.17
2019-02-27T12:24:05.421Z,17.55
2019-02-27T12:25:20.115Z,11.68
2019-02-27T12:26:34.409Z,11.85
2019-02-27T12:27:50.096Z,12.30
2019-02-27T12:29:03.410Z,13.85
2019-02-27T12:30:21.537Z,16.27
2019-02-27T12:31:36.076Z,11.83
2019-02-27T12:32:49.289Z,13.38
2019-02-27T12:34:03.361Z,15.43
2019-02-27T12:35:18.857Z,12.63
2019-02-27T12:36:32.082Z,11.65
2019-02-27T12:37:45.313Z,12.63
2019-02-27T12:38:58.537Z,12.23
2019-02-27T12:40:14.663Z,15.00
2019-02-27T12:41:30.024Z,13.53
2019-02-27T12:42:43.230Z,13.98
2019-02-27T12:43:56.486Z,17.67
2019-02-27T12:45:15.468Z,13.35
2019-02-27T12:46:28.748Z,15.60
2019-02-27T12:47:42.692Z,13.10
2019-02-27T12:48:55.924Z,14.25
2019-02-27T12:50:11.588Z,14.33
2019-02-27T12:51:25.908Z,16.23
2019-02-27T12:52:39.129Z,15.70
2019-02-27T12:53:54.620Z,21.90
2019-02-27T12:55:07.476Z,19.25
2019-02-27T12:56:20.720Z,16.15
2019-02-27T12:57:33.961Z,18.02
2019-02-27T12:58:47.230Z,22.48
2019-02-27T13:00:00.476Z,15.83
2019-02-27T13:01:16.162Z,14.73
2019-02-27T13:02:35.676Z,23.67
2019-02-27T13:03:43.605Z,13.70
2019-02-27T13:04:57.925Z,14.90
2019-02-27T13:06:11.257Z,17.30
2019-02-27T13:07:24.496Z,15.08
2019-02-27T13:08:37.721Z,15.50
2019-02-27T13:09:50.965Z,16.75
2019-02-27T13:11:07.952Z,15.80
2019-02-27T13:12:20.797Z,13.35
2019-02-27T13:13:34.029Z,12.98
2019-02-27T13:14:47.260Z,13.55
2019-02-27T13:16:00.496Z,17.15
2019-02-27T13:17:13.721Z,13.30
2019-02-27T13:18:31.635Z,12.93
2019-02-27T13:19:41.922Z,30.17
2019-02-27T13:20:55.165Z,51.15
2019-02-27T13:22:08.404Z,25.82
2019-02-27T13:23:21.633Z,17.77
2019-02-27T13:24:34.869Z,14.58
2019-02-27T13:25:50.988Z,13.53
2019-02-27T13:27:09.070Z,14.23
2019-02-27T13:28:20.289Z,16.25
2019-02-27T13:29:33.517Z,28.32
2019-02-27T13:30:46.753Z,21.00
2019-02-27T13:31:59.986Z,15.28
2019-02-27T13:33:13.213Z,15.15
2019-02-27T13:34:26.450Z,17.37
2019-02-27T13:35:40.631Z,18.98
2019-02-27T13:36:53.861Z,15.10
2019-02-27T13:38:07.101Z,15.90
2019-02-27T13:39:20.325Z,13.25
2019-02-27T13:40:35.646Z,11.18
2019-02-27T13:41:48.502Z,18.12
2019-02-27T13:43:01.784Z,11.80
2019-02-27T13:44:15.069Z,12.03
2019-02-27T13:45:28.944Z,11.65
2019-02-27T13:46:42.173Z,15.43
2019-02-27T13:47:55.396Z,16.10
2019-02-27T13:49:08.630Z,14.75
2019-02-27T13:50:23.453Z,13.10
2019-02-27T13:51:40.045Z,14.10
2019-02-27T13:52:51.829Z,11.90
2019-02-27T13:54:05.074Z,16.07
2019-02-27T13:55:19.555Z,15.83
2019-02-27T13:56:32.828Z,17.20
2019-02-27T13:57:46.064Z,15.75
2019-02-27T13:58:59.304Z,13.60
2019-02-27T14:00:21.590Z,14.93
2019-02-27T14:01:36.549Z,10.40
2019-02-27T14:02:52.473Z,15.45
2019-02-27T14:04:05.711Z,13.48
2019-02-27T14:05:18.941Z,20.08
2019-02-27T14:06:32.175Z,15.28
2019-02-27T14:07:45.399Z,18.07
2019-02-27T14:08:58.622Z,12.10
2019-02-27T14:10:17.163Z,17.10
2019-02-27T14:11:29.549Z,11.00
2019-02-27T14:12:42.778Z,12.68
2019-02-27T14:13:56.000Z,13.03
2019-02-27T14:15:11.662Z,10.50
2019-02-27T14:16:24.917Z,18.67
2019-02-27T14:17:41.402Z,9.58
2019-02-27T14:18:54.150Z,18.25
2019-02-27T14:20:11.736Z,21.17
2019-02-27T14:21:24.973Z,15.83
2019-02-27T14:22:40.660Z,13.03
2019-02-27T14:23:53.145Z,17.98
2019-02-27T14:25:09.921Z,18.62
2019-02-27T14:26:23.156Z,17.45
2019-02-27T14:27:36.391Z,11.88
2019-02-27T14:28:52.143Z,10.03
2019-02-27T14:30:10.665Z,16.10
2019-02-27T14:31:23.873Z,14.83
2019-02-27T14:32:37.109Z,13.05
2019-02-27T14:33:51.256Z,13.38
2019-02-27T14:35:05.572Z,11.25
2019-02-27T14:36:19.688Z,23.22
2019-02-27T14:37:32.929Z,14.50
2019-02-27T14:38:46.241Z,16.50
2019-02-27T14:40:03.777Z,14.03
2019-02-27T14:41:15.149Z,10.58
2019-02-27T14:42:28.468Z,15.25
2019-02-27T14:43:41.685Z,12.30
2019-02-27T14:44:54.916Z,20.08
2019-02-27T14:46:11.511Z,33.75
2019-02-27T14:47:25.496Z,18.37
2019-02-27T14:48:38.741Z,17.30
2019-02-27T14:49:51.977Z,24.43
2019-02-27T14:51:07.996Z,14.70
2019-02-27T14:52:20.149Z,26.37
2019-02-27T14:53:34.359Z,31.40
2019-02-27T14:54:47.584Z,15.55
2019-02-27T14:56:10.030Z,9.88
2019-02-27T14:57:23.091Z,13.15
2019-02-27T14:58:36.310Z,9.33
2019-02-27T14:59:49.540Z,9.00
2019-02-27T15:01:02.777Z,12.90
2019-02-27T15:02:22.034Z,10.70
2019-02-27T15:03:33.152Z,15.95
2019-02-27T15:04:46.386Z,10.98
2019-02-27T15:05:59.629Z,13.62
2019-02-27T15:07:12.853Z,14.40
2019-02-27T15:08:26.084Z,10.70
2019-02-27T15:09:47.581Z,17.50
2019-02-27T15:10:54.277Z,15.65
2019-02-27T15:12:07.512Z,19.12
2019-02-27T15:13:20.729Z,11.75
2019-02-27T15:14:33.966Z,20.72
2019-02-27T15:15:47.220Z,19.00
2019-02-27T15:17:00.500Z,14.78
2019-02-27T15:18:14.096Z,14.05
2019-02-27T15:19:30.075Z,11.53
2019-02-27T15:20:42.253Z,9.30
2019-02-27T15:21:55.493Z,14.98
2019-02-27T15:23:08.725Z,9.58
2019-02-27T15:24:21.957Z,12.85
2019-02-27T15:25:42.229Z,15.83
2019-02-27T15:26:51.467Z,10.55
2019-02-27T15:28:04.695Z,12.05
2019-02-27T15:29:17.917Z,10.88
2019-02-27T15:30:32.178Z,10.58
2019-02-27T15:31:45.409Z,8.53
2019-02-27T15:33:03.735Z,14.18
2019-02-27T15:34:14.858Z,9.60
2019-02-27T15:35:28.436Z,25.43
2019-02-27T15:36:41.749Z,66.87
2019-02-27T15:37:54.974Z,39.90
2019-02-27T15:39:09.825Z,18.17
2019-02-27T15:40:28.568Z,18.40
2019-02-27T15:41:39.642Z,16.57
2019-02-27T15:42:54.121Z,7.28
2019-02-27T15:44:08.646Z,9.78
2019-02-27T15:45:23.113Z,11.60
2019-02-27T15:46:36.340Z,15.28
2019-02-27T15:47:49.576Z,17.17
2019-02-27T15:49:02.865Z,12.93
2019-02-27T15:50:32.781Z,9.60
2019-02-27T15:51:46.016Z,14.00
2019-02-27T15:52:59.252Z,13.05
2019-02-27T15:54:12.476Z,18.20
2019-02-27T15:55:25.703Z,14.50
2019-02-27T15:56:41.506Z,24.45
2019-02-27T15:57:54.260Z,13.83
2019-02-27T15:59:08.358Z,9.85
2019-02-27T16:00:23.008Z,19.05
2019-02-27T16:01:36.237Z,13.58
2019-02-27T16:02:49.453Z,16.00
2019-02-27T16:04:02.684Z,20.57
2019-02-27T16:05:15.989Z,17.82
2019-02-27T16:06:29.518Z,16.37
2019-02-27T16:07:48.535Z,16.77
2019-02-27T16:08:58.380Z,16.77
2019-02-27T16:10:17.126Z,18.17
2019-02-27T16:11:30.336Z,17.48
2019-02-27T16:12:43.556Z,20.88
2019-02-27T16:13:56.796Z,28.45
2019-02-27T16:15:16.498Z,42.58
2019-02-27T16:16:27.025Z,26.60
2019-02-27T16:17:40.259Z,16.45
2019-02-27T16:18:53.473Z,23.52
2019-02-27T16:20:09.848Z,14.47
2019-02-27T16:21:23.613Z,19.17
2019-02-27T16:22:37.544Z,15.10
2019-02-27T16:23:50.787Z,13.90
2019-02-27T16:25:06.574Z,16.60
2019-02-27T16:26:19.824Z,15.00
2019-02-27T16:27:35.423Z,12.68
2019-02-27T16:28:48.999Z,10.63
2019-02-27T16:30:03.832Z,9.73
2019-02-27T16:31:17.065Z,15.78
2019-02-27T16:32:32.968Z,12.23